Wiley Post Will Rogers Memorial Airport Barrow US
ICAO: PABR
IATA:
Category: Medium
Scheduled Services:

Elevation: 44 ft
TransAlt. 18000 ft.

Airport Communications:
ASOS:132.15
ANCHORAGE CNTR:135.3
CTAF:123.6
BARROW RDO:122.2

PABR Zoom In..

Runways:

(A) RW 07 length 7100 ft width 150 ft
ILS 110.50 / hdg 71

(B) RW 25 length 7100 ft width 150 ft
---- / hdg 251

Location; PABR
Day. 20 / Time. 16.53 Zulu
* Altimeter: 30.07
* Temperature: -08° c. -17.6°f.
* Wind from: 050° Speed 14 kn.
Dewpoint: -10° c.
Visibility: 10 Statute Miles.
Clouds: Clear (automated report).

PABR 201653Z 05014KT 10SM CLR M08/M10 A3007 RMK AO2 SLP185 T10781100 $


Wind From 050°
Speed 14 kn.

 
 
jpsmedia.com for Web Design SOUNDCLOUD worldairports.se 2018   terms of use